Time;durP1;ratioP1;P1;durP2;ratioP2;P2;SDS_P1;SDS_P2;PMS_P1;PMS_P2;Temp;Humidity;BMP_temperature;BMP_pressure;BME280_temperature;BME280_humidity;BME280_pressure;Samples;Min_cycle;Max_cycle;Signal;HPM_P1;HPM_P2
2022/05/15 00:00:37;;;;;;;8.73;3.70;;;17.40;74.80;;;;;;6181377;23;19993;-68
2022/05/15 00:00:43;;;;;;;11.05;3.85;;;17.40;74.70;;;;;;6181398;23;20165;-70
2022/05/15 00:03:15;;;;;;;10.50;3.50;;;17.40;74.70;;;;;;6180393;23;20005;-67
2022/05/15 00:05:43;;;;;;;8.15;2.75;;;17.40;74.60;;;;;;6181902;23;20009;-67
2022/05/15 00:08:11;;;;;;;10.85;3.03;;;17.40;74.60;;;;;;6181171;23;20002;-68
2022/05/15 00:10:43;;;;;;;9.20;2.30;;;17.30;74.60;;;;;;6181144;23;20016;-68
2022/05/15 00:13:09;;;;;;;15.10;3.80;;;17.30;74.60;;;;;;6181762;23;20417;-68
2022/05/15 00:15:36;;;;;;;15.35;3.53;;;17.30;74.50;;;;;;6180460;23;20001;-68
2022/05/15 00:18:03;;;;;;;7.13;2.55;;;17.30;74.40;;;;;;6181446;23;20420;-68
2022/05/15 00:20:30;;;;;;;9.07;2.70;;;17.30;74.40;;;;;;6180438;23;20001;-68
2022/05/15 00:22:57;;;;;;;13.77;3.53;;;17.30;74.30;;;;;;6181009;23;20005;-71
2022/05/15 00:25:23;;;;;;;9.48;2.80;;;17.30;74.40;;;;;;6179030;23;20320;-68
2022/05/15 00:27:50;;;;;;;10.90;3.47;;;17.30;74.40;;;;;;6179406;23;20008;-69
2022/05/15 00:30:18;;;;;;;11.55;2.95;;;17.30;74.40;;;;;;6179458;23;20005;-68
2022/05/15 00:32:45;;;;;;;14.65;3.13;;;17.30;74.40;;;;;;6178642;23;20452;-68
2022/05/15 00:35:11;;;;;;;14.82;3.70;;;17.30;74.30;;;;;;6179436;23;20028;-68
2022/05/15 00:37:38;;;;;;;12.25;4.07;;;17.30;74.40;;;;;;6178370;23;20417;-68
2022/05/15 00:40:06;;;;;;;11.73;3.17;;;17.30;74.40;;;;;;6180197;23;20008;-68
2022/05/15 00:42:33;;;;;;;11.80;3.22;;;17.20;74.70;;;;;;6178596;23;19997;-68
2022/05/15 00:45:00;;;;;;;12.75;3.03;;;17.30;74.80;;;;;;6179649;23;20012;-68
2022/05/15 00:47:26;;;;;;;10.77;2.95;;;17.30;74.80;;;;;;6179689;23;20001;-67
2022/05/15 00:49:54;;;;;;;11.35;4.03;;;17.30;75.30;;;;;;6178657;23;20013;-68
2022/05/15 00:52:26;;;;;;;12.80;3.50;;;17.20;74.50;;;;;;6180024;23;20004;-68
2022/05/15 00:55:00;;;;;;;15.43;4.25;;;17.20;74.50;;;;;;6178338;23;20044;-68
2022/05/15 00:57:33;;;;;;;14.93;3.47;;;17.20;74.60;;;;;;6180873;23;20429;-68
2022/05/15 01:00:14;;;;;;;9.38;3.58;;;17.20;74.60;;;;;;6153968;23;20348;-69
2022/05/15 01:02:46;;;;;;;14.05;3.33;;;17.20;74.60;;;;;;6180810;23;20013;-67
2022/05/15 01:05:14;;;;;;;13.43;3.72;;;17.20;74.70;;;;;;6181661;23;20083;-67
2022/05/15 01:07:41;;;;;;;14.88;4.68;;;17.10;74.80;;;;;;6180004;23;20492;-67
2022/05/15 01:10:09;;;;;;;14.80;4.43;;;17.10;74.80;;;;;;6181557;23;20504;-67
2022/05/15 01:12:40;;;;;;;17.27;4.68;;;17.10;74.90;;;;;;6180015;23;20420;-68
2022/05/15 01:15:08;;;;;;;15.45;4.47;;;17.10;75.00;;;;;;6181432;23;20066;-67
2022/05/15 01:17:34;;;;;;;19.50;5.45;;;17.10;75.00;;;;;;6180604;23;20063;-67
2022/05/15 01:20:16;;;;;;;19.48;5.18;;;17.00;75.00;;;;;;6180966;23;20388;-67
2022/05/15 01:22:43;;;;;;;15.70;5.43;;;17.00;75.20;;;;;;6181938;23;20008;-68
2022/05/15 01:25:20;;;;;;;20.20;5.03;;;17.00;75.20;;;;;;6179530;23;20143;-67
2022/05/15 01:27:53;;;;;;;13.13;4.47;;;17.00;75.30;;;;;;6181453;23;20005;-67
2022/05/15 01:30:20;;;;;;;16.73;5.28;;;17.00;75.30;;;;;;6180364;23;20019;-67
2022/05/15 01:32:46;;;;;;;16.60;5.70;;;17.00;75.30;;;;;;6180259;23;20008;-67
2022/05/15 01:35:13;;;;;;;18.55;4.57;;;17.00;75.20;;;;;;6181064;23;20012;-68
2022/05/15 01:37:40;;;;;;;14.48;5.10;;;16.90;75.20;;;;;;6180665;23;20001;-67
2022/05/15 01:40:08;;;;;;;15.85;4.38;;;16.90;75.30;;;;;;6181508;23;20581;-67
2022/05/15 01:42:34;;;;;;;15.43;4.28;;;16.90;75.30;;;;;;6179975;23;20029;-69
2022/05/15 01:45:01;;;;;;;12.27;4.68;;;16.90;75.30;;;;;;6181172;23;20116;-68
2022/05/15 01:47:27;;;;;;;14.68;3.95;;;16.90;75.40;;;;;;6179816;23;20001;-68
2022/05/15 01:49:57;;;;;;;17.35;4.32;;;16.90;75.30;;;;;;6181264;23;20447;-67
2022/05/15 01:52:23;;;;;;;12.15;4.47;;;16.90;75.30;;;;;;6181006;23;20009;-67
2022/05/15 01:54:50;;;;;;;10.32;3.90;;;16.90;75.30;;;;;;6180191;23;20008;-67
2022/05/15 01:57:16;;;;;;;23.90;5.70;;;16.80;75.30;;;;;;6181174;23;20001;-68
2022/05/15 01:59:43;;;;;;;10.90;4.45;;;16.80;75.30;;;;;;6179621;23;20032;-68
2022/05/15 02:02:10;;;;;;;15.32;4.45;;;16.80;75.30;;;;;;6181051;23;20005;-69
2022/05/15 02:04:36;;;;;;;10.93;2.92;;;16.80;75.30;;;;;;6179720;23;20047;-67
2022/05/15 02:07:03;;;;;;;13.43;4.15;;;16.80;76.00;;;;;;6181133;23;20077;-68
2022/05/15 02:09:29;;;;;;;12.43;3.65;;;16.80;75.30;;;;;;6180259;23;20433;-68
2022/05/15 02:11:56;;;;;;;13.73;3.50;;;16.80;75.30;;;;;;6180192;23;20013;-67
2022/05/15 02:14:22;;;;;;;16.70;5.05;;;16.80;75.30;;;;;;6181119;23;20029;-68
2022/05/15 02:16:49;;;;;;;11.75;4.22;;;16.80;75.30;;;;;;6180365;23;20001;-69
2022/05/15 02:19:55;;;;;;;8.43;3.88;;;16.80;75.30;;;;;;6155884;23;20005;-68
2022/05/15 02:23:01;;;;;;;13.02;4.05;;;16.80;75.20;;;;;;6181524;23;20393;-68
2022/05/15 02:26:07;;;;;;;12.63;4.07;;;16.70;75.00;;;;;;6181239;23;20060;-68
2022/05/15 02:29:13;;;;;;;9.48;3.47;;;16.80;75.00;;;;;;6182610;23;20001;-68
2022/05/15 02:32:19;;;;;;;21.52;4.97;;;16.70;75.00;;;;;;6182406;23;20013;-68
2022/05/15 02:35:26;;;;;;;11.32;4.13;;;16.70;75.10;;;;;;6181064;23;20047;-67
2022/05/15 02:38:32;;;;;;;14.82;3.95;;;16.70;75.40;;;;;;6182040;23;20005;-67
2022/05/15 02:41:38;;;;;;;19.80;4.13;;;16.70;75.10;;;;;;6182199;23;20055;-67
2022/05/15 02:44:44;;;;;;;18.00;4.40;;;16.70;75.10;;;;;;6181659;23;20072;-67
2022/05/15 02:47:50;;;;;;;14.65;3.88;;;16.70;75.20;;;;;;6181132;23;20459;-67
2022/05/15 02:51:05;;;;;;;19.60;3.15;;;16.70;75.30;;;;;;6182013;23;20009;-67
2022/05/15 02:54:14;;;;;;;12.88;3.40;;;16.70;75.10;;;;;;6182223;23;20016;-68
2022/05/15 02:57:20;;;;;;;9.38;3.95;;;16.70;75.10;;;;;;6180926;23;20055;-67
2022/05/15 03:00:26;;;;;;;8.63;3.30;;;16.60;74.90;;;;;;6181163;23;20447;-68
2022/05/15 03:03:32;;;;;;;11.45;4.93;;;16.60;74.80;;;;;;6182039;23;20005;-67
2022/05/15 03:06:38;;;;;;;7.95;3.85;;;16.60;74.90;;;;;;6181699;23;19997;-67
2022/05/15 03:09:46;;;;;;;14.20;3.90;;;16.60;74.90;;;;;;6181121;23;20029;-67
2022/05/15 03:12:52;;;;;;;12.85;4.47;;;16.60;74.80;;;;;;6181895;23;20032;-70
2022/05/15 03:15:58;;;;;;;13.60;4.72;;;16.60;74.70;;;;;;6182347;23;20024;-67
2022/05/15 03:19:04;;;;;;;12.93;4.97;;;16.50;74.70;;;;;;6180825;23;19997;-66
2022/05/15 03:22:10;;;;;;;9.43;4.00;;;16.50;74.80;;;;;;6180413;23;20456;-67
2022/05/15 03:25:16;;;;;;;20.55;5.38;;;16.50;74.80;;;;;;6181722;23;20277;-70
2022/05/15 03:28:22;;;;;;;19.30;5.55;;;16.50;74.80;;;;;;6181692;23;20001;-69
2022/05/15 03:31:28;;;;;;;15.88;5.57;;;16.50;75.00;;;;;;6180750;23;20055;-67
2022/05/15 03:34:34;;;;;;;12.10;3.83;;;16.50;75.10;;;;;;6181775;23;20428;-68
2022/05/15 03:37:40;;;;;;;12.63;5.18;;;16.50;75.10;;;;;;6181517;23;20008;-66
2022/05/15 03:40:46;;;;;;;15.57;4.80;;;16.50;75.00;;;;;;6180754;23;20013;-67
2022/05/15 03:43:52;;;;;;;19.30;5.40;;;16.50;74.90;;;;;;6180594;23;20005;-67
2022/05/15 03:46:59;;;;;;;12.13;4.10;;;16.40;74.80;;;;;;6181861;23;19997;-70
2022/05/15 03:50:07;;;;;;;10.93;4.55;;;16.40;74.90;;;;;;6181485;23;19997;-68
2022/05/15 03:53:13;;;;;;;11.52;4.65;;;16.40;74.90;;;;;;6180472;23;20474;-67
2022/05/15 03:56:49;;;;;;;22.02;5.13;;;16.40;74.80;;;;;;6181437;23;20344;-68
2022/05/15 03:59:48;;;;;;;12.52;5.43;;;16.40;75.00;;;;;;6181366;23;20045;-68
2022/05/15 04:02:54;;;;;;;15.32;4.82;;;16.40;74.90;;;;;;6180822;23;20005;-67
2022/05/15 04:06:00;;;;;;;19.20;5.03;;;16.30;74.70;;;;;;6180266;23;20428;-69
2022/05/15 04:09:06;;;;;;;9.30;3.97;;;16.30;74.60;;;;;;6181643;23;20108;-69
2022/05/15 04:12:12;;;;;;;21.23;5.35;;;16.30;74.60;;;;;;6181473;23;20013;-68
2022/05/15 04:15:18;;;;;;;9.90;4.03;;;16.30;74.70;;;;;;6179841;23;20033;-67
2022/05/15 04:18:24;;;;;;;15.55;4.72;;;16.30;74.80;;;;;;6179866;23;20360;-70
2022/05/15 04:21:36;;;;;;;15.40;4.88;;;16.30;74.80;;;;;;6180883;23;20003;-67
2022/05/15 04:24:42;;;;;;;15.48;4.95;;;16.30;74.90;;;;;;6179805;23;20032;-70
2022/05/15 04:27:49;;;;;;;20.08;5.60;;;16.30;75.00;;;;;;6179153;23;20025;-67
2022/05/15 04:30:55;;;;;;;16.75;3.95;;;16.30;75.20;;;;;;6180127;23;20048;-67
2022/05/15 04:34:01;;;;;;;22.42;6.47;;;16.30;75.50;;;;;;6181886;23;19997;-67
2022/05/15 04:37:07;;;;;;;19.75;4.63;;;16.20;75.50;;;;;;6181225;23;20364;-67
2022/05/15 04:40:13;;;;;;;16.98;5.22;;;16.20;75.70;;;;;;6181268;23;20005;-67
2022/05/15 04:43:19;;;;;;;25.40;5.00;;;16.20;75.70;;;;;;6182561;23;20429;-67
2022/05/15 04:46:29;;;;;;;23.73;5.78;;;16.20;75.90;;;;;;6182038;23;20051;-67
2022/05/15 04:49:35;;;;;;;17.55;5.05;;;16.20;76.10;;;;;;6180959;23;20054;-69
2022/05/15 04:52:41;;;;;;;16.67;4.57;;;16.20;76.20;;;;;;6181898;23;20013;-67
2022/05/15 04:55:47;;;;;;;20.80;4.47;;;16.20;76.20;;;;;;6182276;23;20115;-67
2022/05/15 04:58:53;;;;;;;20.75;4.45;;;16.20;76.20;;;;;;6181393;23;19997;-70
2022/05/15 05:01:59;;;;;;;15.57;5.05;;;16.20;76.30;;;;;;6181561;23;20076;-70
2022/05/15 05:05:05;;;;;;;15.73;5.20;;;16.20;76.20;;;;;;6183324;23;20436;-67
2022/05/15 05:08:12;;;;;;;17.88;5.85;;;16.20;76.30;;;;;;6183035;23;19997;-67
2022/05/15 05:11:18;;;;;;;15.75;5.15;;;16.10;76.50;;;;;;6181893;23;20009;-68
2022/05/15 05:14:24;;;;;;;16.25;5.65;;;16.10;76.70;;;;;;6182626;23;20012;-67
2022/05/15 05:17:30;;;;;;;29.15;5.13;;;16.10;76.90;;;;;;6182931;23;20467;-69
2022/05/15 05:20:36;;;;;;;17.38;5.85;;;16.10;77.30;;;;;;6181696;23;20001;-67
2022/05/15 05:23:42;;;;;;;19.33;5.05;;;16.10;77.40;;;;;;6180360;23;20012;-67
2022/05/15 05:26:48;;;;;;;22.60;5.53;;;16.20;77.60;;;;;;6181901;23;20132;-68
2022/05/15 05:29:54;;;;;;;20.35;5.25;;;16.20;77.80;;;;;;6182161;23;20001;-70
2022/05/15 05:33:00;;;;;;;18.25;5.97;;;16.20;78.00;;;;;;6181129;23;20012;-67
2022/05/15 05:36:06;;;;;;;20.10;6.20;;;16.20;78.30;;;;;;6181225;23;20025;-69
2022/05/15 05:39:13;;;;;;;21.23;5.97;;;16.10;78.50;;;;;;6181701;23;20396;-71
2022/05/15 05:42:19;;;;;;;15.43;5.18;;;16.10;78.50;;;;;;6181354;23;20004;-66
2022/05/15 05:45:25;;;;;;;20.33;6.22;;;16.20;78.70;;;;;;6180456;23;20337;-67
2022/05/15 05:48:31;;;;;;;17.77;5.25;;;16.20;78.90;;;;;;6182037;23;20001;-71
2022/05/15 05:51:37;;;;;;;19.15;5.00;;;16.20;79.00;;;;;;6182010;23;20009;-68
2022/05/15 05:54:43;;;;;;;19.55;5.50;;;16.20;79.20;;;;;;6180341;23;20081;-69
2022/05/15 05:57:49;;;;;;;31.70;6.97;;;16.20;79.20;;;;;;6181539;23;20028;-69
2022/05/15 06:00:55;;;;;;;20.48;5.03;;;16.20;79.40;;;;;;6181703;23;20004;-68
2022/05/15 06:07:26;;;;;;;15.82;5.65;;;16.20;79.60;;;;;;6181128;23;20055;-67
2022/05/15 06:10:32;;;;;;;17.02;5.53;;;16.20;79.60;;;;;;6181101;23;20008;-67
2022/05/15 06:13:39;;;;;;;17.63;6.38;;;16.20;79.60;;;;;;6181689;23;20107;-70
2022/05/15 06:16:45;;;;;;;18.00;6.43;;;16.20;79.80;;;;;;6180595;23;20298;-67
2022/05/15 06:19:51;;;;;;;25.63;6.85;;;16.10;79.90;;;;;;6180235;23;20099;-70
2022/05/15 06:22:57;;;;;;;17.48;5.55;;;16.20;80.10;;;;;;6181678;23;20051;-71
2022/05/15 06:26:03;;;;;;;19.48;5.82;;;16.20;80.00;;;;;;6181883;23;20013;-67
2022/05/15 06:29:09;;;;;;;28.13;7.90;;;16.20;80.20;;;;;;6179974;23;20657;-71
2022/05/15 06:32:15;;;;;;;22.33;8.02;;;16.20;80.40;;;;;;6180801;23;20009;-67
2022/05/15 06:35:22;;;;;;;16.05;6.20;;;16.20;80.60;;;;;;6181967;23;20009;-66
2022/05/15 06:38:28;;;;;;;19.42;6.65;;;16.10;80.60;;;;;;6180738;23;20542;-69
2022/05/15 06:41:34;;;;;;;25.85;5.78;;;16.20;81.30;;;;;;6181465;23;20381;-71
2022/05/15 06:44:40;;;;;;;26.73;7.47;;;16.20;81.10;;;;;;6181801;23;20072;-67
2022/05/15 06:47:46;;;;;;;23.00;7.72;;;16.20;81.10;;;;;;6181098;23;20004;-69
2022/05/15 06:50:52;;;;;;;22.25;6.57;;;16.20;81.20;;;;;;6179741;23;20051;-67
2022/05/15 06:53:58;;;;;;;19.88;6.05;;;16.20;81.20;;;;;;6180764;23;20005;-68
2022/05/15 07:00:31;;;;;;;21.77;6.32;;;16.30;81.30;;;;;;6180933;23;20015;-71
2022/05/15 07:03:37;;;;;;;31.42;7.22;;;16.30;81.50;;;;;;6176930;23;20009;-67
2022/05/15 07:06:25;;;;;;;;;;;16.30;81.60;;;;;;6179017;23;20005;-68
2022/05/15 07:09:31;;;;;;;17.70;5.57;;;16.30;81.80;;;;;;6178639;23;19939;-69
2022/05/15 07:12:37;;;;;;;29.58;5.70;;;16.30;81.80;;;;;;6176834;23;20059;-68
2022/05/15 07:15:43;;;;;;;26.83;7.10;;;16.40;82.00;;;;;;6178023;23;19997;-68
2022/05/15 07:18:49;;;;;;;15.20;5.28;;;16.40;82.10;;;;;;6178091;23;20008;-70
2022/05/15 07:21:55;;;;;;;22.70;6.80;;;16.40;82.10;;;;;;6177437;23;20001;-71
2022/05/15 07:25:01;;;;;;;28.45;8.55;;;16.40;82.10;;;;;;6176705;23;20459;-71
2022/05/15 07:28:07;;;;;;;29.15;5.38;;;16.40;82.20;;;;;;6178272;23;20001;-71
2022/05/15 07:31:13;;;;;;;25.90;7.70;;;16.50;82.50;;;;;;6178171;23;20001;-70
2022/05/15 07:34:19;;;;;;;22.52;5.40;;;16.40;82.60;;;;;;6178209;23;20437;-71
2022/05/15 07:37:26;;;;;;;26.80;5.80;;;16.50;82.80;;;;;;6178497;23;20011;-68
2022/05/15 07:40:32;;;;;;;16.70;5.18;;;16.50;82.80;;;;;;6178900;23;20084;-71
2022/05/15 07:43:39;;;;;;;19.75;5.55;;;16.60;83.00;;;;;;6151355;23;20336;-68
2022/05/15 07:46:45;;;;;;;23.38;6.53;;;16.50;83.00;;;;;;6177535;23;20009;-68
2022/05/15 07:49:51;;;;;;;24.55;5.65;;;16.60;83.20;;;;;;6180093;23;20005;-68
2022/05/15 07:52:57;;;;;;;37.78;6.20;;;16.70;83.40;;;;;;6179783;23;20008;-67
2022/05/15 07:56:03;;;;;;;47.17;7.88;;;16.70;83.40;;;;;;6178576;23;20297;-71
2022/05/15 07:59:11;;;;;;;33.50;6.72;;;16.70;83.50;;;;;;6178916;23;20521;-70
2022/05/15 08:02:17;;;;;;;38.35;7.90;;;16.80;83.60;;;;;;6178416;23;20550;-71
2022/05/15 08:08:14;;;;;;;23.35;5.38;;;16.80;83.70;;;;;;6178692;23;20283;-68
2022/05/15 08:10:46;;;;;;;20.70;4.80;;;17.00;83.80;;;;;;6179417;23;20095;-71
2022/05/15 08:13:16;;;;;;;25.15;5.47;;;17.00;83.70;;;;;;6177354;23;20032;-71
2022/05/15 08:15:43;;;;;;;18.27;4.53;;;17.00;83.50;;;;;;6177406;23;20487;-69
2022/05/15 08:23:54;;;;;;;22.25;5.53;;;17.10;83.20;;;;;;6179267;23;20071;-69
2022/05/15 08:26:20;;;;;;;19.38;4.13;;;17.20;83.10;;;;;;6178757;23;20008;-72
2022/05/15 08:28:47;;;;;;;18.80;4.72;;;17.20;82.80;;;;;;6178796;23;20016;-71
2022/05/15 08:31:14;;;;;;;16.42;4.30;;;17.20;82.60;;;;;;6178822;23;20047;-68
2022/05/15 08:33:41;;;;;;;8.95;3.83;;;17.20;82.40;;;;;;6178224;23;20009;-70
2022/05/15 08:36:08;;;;;;;13.30;3.70;;;17.30;82.30;;;;;;6179281;23;19997;-70
2022/05/15 08:38:36;;;;;;;12.45;4.18;;;17.30;81.90;;;;;;6176119;23;20001;-69
2022/05/15 08:41:21;;;;;;;15.60;4.88;;;17.40;81.40;;;;;;6178586;23;20436;-71
2022/05/15 08:43:58;;;;;;;13.23;3.63;;;17.40;81.20;;;;;;6178994;23;20005;-71
2022/05/15 08:46:41;;;;;;;17.50;5.07;;;17.40;80.90;;;;;;6179871;23;20007;-68
2022/05/15 08:49:11;;;;;;;15.65;4.95;;;17.50;80.50;;;;;;6181375;23;20143;-68
2022/05/15 08:51:47;;;;;;;15.57;4.28;;;17.50;80.40;;;;;;6178483;23;20033;-70
2022/05/15 08:54:13;;;;;;;31.67;4.60;;;17.60;80.20;;;;;;6181364;23;19997;-71
2022/05/15 08:56:46;;;;;;;30.30;5.18;;;17.60;80.00;;;;;;6180605;23;20029;-71
2022/05/15 08:59:30;;;;;;;23.63;6.30;;;17.60;79.10;;;;;;6180601;23;19997;-69
2022/05/15 09:01:59;;;;;;;29.20;5.47;;;17.70;78.70;;;;;;6181056;23;20009;-69
2022/05/15 09:04:27;;;;;;;23.58;4.65;;;17.80;77.90;;;;;;6179005;23;20005;-69
2022/05/15 09:06:59;;;;;;;17.13;4.63;;;17.80;77.60;;;;;;6181708;23;20004;-67
2022/05/15 09:09:43;;;;;;;12.52;4.38;;;17.80;77.50;;;;;;6180638;23;20001;-67
2022/05/15 09:12:20;;;;;;;10.57;3.92;;;17.90;77.60;;;;;;6179766;23;20060;-68
2022/05/15 09:15:18;;;;;;;16.10;4.50;;;18.00;77.50;;;;;;6181058;23;20018;-67
2022/05/15 09:17:51;;;;;;;12.82;4.10;;;18.00;78.00;;;;;;6180314;23;20040;-67
2022/05/15 09:20:26;;;;;;;12.20;4.38;;;18.10;77.00;;;;;;6183024;23;20008;-68
2022/05/15 09:23:56;;;;;;;18.92;4.47;;;18.10;77.00;;;;;;6183025;23;20001;-70
2022/05/15 09:26:44;;;;;;;38.70;5.63;;;18.20;77.10;;;;;;6028303;23;20015;-70
2022/05/15 09:29:22;;;;;;;28.50;4.88;;;18.30;76.20;;;;;;6033147;23;20332;-68
2022/05/15 09:31:49;;;;;;;16.80;4.38;;;18.30;76.20;;;;;;6164772;23;20017;-67
2022/05/15 09:34:21;;;;;;;19.48;5.13;;;18.40;75.10;;;;;;6181890;23;19997;-71
2022/05/15 09:36:50;;;;;;;15.93;5.57;;;18.40;74.50;;;;;;6182893;23;20033;-68
2022/05/15 09:39:42;;;;;;;15.75;5.05;;;18.50;74.20;;;;;;6181430;23;20004;-68
2022/05/15 09:45:17;;;;;;;10.98;3.22;;;18.60;73.20;;;;;;6182015;23;20015;-69
2022/05/15 09:48:05;;;;;;;12.00;4.00;;;18.70;71.70;;;;;;6180269;23;20009;-68
2022/05/15 09:50:38;;;;;;;10.00;3.67;;;18.70;71.70;;;;;;6181605;23;20042;-68
2022/05/15 09:53:14;;;;;;;15.38;4.32;;;18.80;71.30;;;;;;6181611;23;20011;-71
2022/05/15 09:55:41;;;;;;;8.80;3.90;;;18.90;70.90;;;;;;6180529;23;19993;-68
2022/05/15 09:58:19;;;;;;;5.18;2.83;;;18.90;69.90;;;;;;6181664;23;20363;-68
2022/05/15 10:00:45;;;;;;;7.30;3.25;;;19.00;69.10;;;;;;6181404;23;20086;-68
2022/05/15 10:03:26;;;;;;;16.60;4.03;;;19.10;68.90;;;;;;6182912;23;20075;-71
2022/05/15 10:06:06;;;;;;;9.95;4.00;;;19.10;68.30;;;;;;6182052;23;20008;-71
2022/05/15 10:08:33;;;;;;;16.20;3.83;;;19.20;67.90;;;;;;6182141;23;20016;-69
2022/05/15 10:11:04;;;;;;;13.35;4.32;;;19.30;67.80;;;;;;6181656;23;20013;-69
2022/05/15 10:13:34;;;;;;;15.25;3.80;;;19.30;67.50;;;;;;6181934;23;20328;-69
2022/05/15 10:16:18;;;;;;;7.40;3.20;;;19.30;66.80;;;;;;6181621;23;19997;-69
2022/05/15 10:19:10;;;;;;;11.52;3.30;;;19.40;66.60;;;;;;6181400;23;19997;-68
2022/05/15 10:21:50;;;;;;;13.55;3.28;;;19.50;66.70;;;;;;6165962;23;20005;-68
2022/05/15 10:24:47;;;;;;;16.55;4.95;;;19.60;66.60;;;;;;6182182;23;20013;-70
2022/05/15 10:27:30;;;;;;;14.85;3.17;;;19.60;66.40;;;;;;6150186;23;20063;-69
2022/05/15 10:30:07;;;;;;;17.35;4.07;;;19.70;66.10;;;;;;6179857;23;20004;-71
2022/05/15 10:32:41;;;;;;;10.77;4.15;;;19.80;65.50;;;;;;6180602;23;20001;-68
2022/05/15 10:35:14;;;;;;;7.10;2.67;;;19.80;64.90;;;;;;6179565;23;20047;-68
2022/05/15 10:37:49;;;;;;;10.23;3.55;;;19.90;64.70;;;;;;6180515;23;20461;-68
2022/05/15 10:40:36;;;;;;;13.40;4.03;;;19.90;63.80;;;;;;6179255;23;20008;-71
2022/05/15 10:43:14;;;;;;;18.83;4.22;;;20.00;63.70;;;;;;6178268;23;20028;-71
2022/05/15 10:45:54;;;;;;;12.40;4.00;;;20.10;63.50;;;;;;6178779;23;20013;-72
2022/05/15 10:48:55;;;;;;;10.00;3.30;;;20.10;63.20;;;;;;6177166;23;20058;-70
2022/05/15 10:51:48;;;;;;;9.38;3.38;;;20.20;63.00;;;;;;6180156;23;20017;-69
2022/05/15 10:57:51;;;;;;;12.20;3.75;;;20.30;62.50;;;;;;6178516;23;20020;-69
2022/05/15 11:00:33;;;;;;;13.95;3.83;;;20.40;61.90;;;;;;6178877;23;20444;-70
2022/05/15 11:03:50;;;;;;;8.77;3.13;;;20.50;61.80;;;;;;6180292;23;20005;-68
2022/05/15 11:06:39;;;;;;;11.23;5.32;;;20.50;61.90;;;;;;6169545;23;20078;-71
2022/05/15 11:09:22;;;;;;;12.75;4.22;;;20.60;61.20;;;;;;6179789;23;20302;-70
2022/05/15 11:12:20;;;;;;;15.45;4.63;;;20.70;61.30;;;;;;6181207;23;20013;-69
2022/05/15 11:15:11;;;;;;;20.60;6.13;;;20.80;61.00;;;;;;6179664;23;20013;-71
2022/05/15 11:18:20;;;;;;;12.20;4.75;;;20.80;61.20;;;;;;6180908;23;20372;-68
2022/05/15 11:20:53;;;;;;;12.15;4.20;;;20.90;61.00;;;;;;6180993;23;20000;-69
2022/05/15 11:23:40;;;;;;;16.33;5.07;;;21.00;61.00;;;;;;6153024;23;20353;-71
2022/05/15 11:26:49;;;;;;;24.30;5.45;;;21.10;60.80;;;;;;6180922;23;20051;-75
2022/05/15 11:29:55;;;;;;;24.77;6.10;;;21.10;61.50;;;;;;6178555;23;20001;-74
2022/05/15 11:32:44;;;;;;;15.50;5.32;;;21.10;61.20;;;;;;6179275;23;20037;-73
2022/05/15 11:35:20;;;;;;;11.05;4.70;;;21.20;61.40;;;;;;6180537;23;20016;-73
2022/05/15 11:37:59;;;;;;;20.02;6.22;;;21.20;61.30;;;;;;6180105;23;20493;-73
2022/05/15 11:40:42;;;;;;;29.45;11.93;;;21.30;60.70;;;;;;6178515;23;20011;-71
2022/05/15 11:43:56;;;;;;;19.65;8.63;;;21.40;60.70;;;;;;6179471;23;20005;-72
2022/05/15 11:46:42;;;;;;;13.35;6.97;;;21.40;60.00;;;;;;6169386;23;20081;-72
2022/05/15 11:49:31;;;;;;;27.65;7.10;;;21.40;60.00;;;;;;6179825;23;19997;-73
2022/05/15 11:52:06;;;;;;;31.10;6.53;;;21.50;60.10;;;;;;6181400;23;20079;-76
2022/05/15 11:54:41;;;;;;;41.13;12.90;;;21.60;60.50;;;;;;6179540;23;20027;-71
2022/05/15 11:57:13;;;;;;;24.85;13.35;;;21.60;60.80;;;;;;6178548;23;19993;-77
2022/05/15 12:00:04;;;;;;;15.45;7.13;;;21.70;60.20;;;;;;6179743;23;20004;-70
2022/05/15 12:02:31;;;;;;;30.05;7.53;;;21.70;59.90;;;;;;6178069;23;20324;-70
2022/05/15 12:05:41;;;;;;;18.42;6.43;;;21.70;59.50;;;;;;6179178;23;20027;-74
2022/05/15 12:08:38;;;;;;;17.48;5.07;;;21.70;59.30;;;;;;6030603;23;20007;-75
2022/05/15 12:11:31;;;;;;;11.50;5.30;;;21.80;59.40;;;;;;6063134;23;20017;-75
2022/05/15 12:14:19;;;;;;;17.67;13.85;;;21.80;58.90;;;;;;6138141;23;20005;-72
2022/05/15 12:17:18;;;;;;;20.00;11.50;;;21.80;58.90;;;;;;6178496;23;20014;-73
2022/05/15 12:19:46;;;;;;;19.77;7.97;;;21.80;58.70;;;;;;6177570;23;20001;-74
2022/05/15 12:22:15;;;;;;;19.50;8.20;;;21.90;57.60;;;;;;6177177;23;20009;-73
2022/05/15 12:24:48;;;;;;;16.25;6.97;;;21.90;57.20;;;;;;6176321;23;20013;-74
2022/05/15 12:27:22;;;;;;;18.95;6.63;;;22.00;56.90;;;;;;6175539;23;20005;-75
2022/05/15 12:30:15;;;;;;;19.52;6.90;;;22.10;56.70;;;;;;6178509;23;20001;-74
2022/05/15 12:33:07;;;;;;;12.48;6.05;;;22.10;56.40;;;;;;6176843;23;20101;-75
2022/05/15 12:35:40;;;;;;;22.05;11.27;;;22.20;56.40;;;;;;6178640;23;20096;-75
2022/05/15 12:38:26;;;;;;;32.53;22.77;;;22.20;56.70;;;;;;6178320;23;20067;-73
2022/05/15 12:41:07;;;;;;;24.52;13.07;;;22.30;56.70;;;;;;6177043;23;20005;-72
2022/05/15 12:43:41;;;;;;;24.88;9.35;;;22.30;56.90;;;;;;6178417;23;20081;-74
2022/05/15 12:46:21;;;;;;;14.13;6.97;;;22.30;56.00;;;;;;6178150;23;20005;-75
2022/05/15 12:48:47;;;;;;;15.35;6.65;;;22.40;55.90;;;;;;6178927;23;20012;-73
2022/05/15 12:51:16;;;;;;;13.82;6.63;;;22.40;55.80;;;;;;6180216;23;20120;-73
2022/05/15 12:53:48;;;;;;;16.02;5.95;;;22.50;56.20;;;;;;6180230;23;20011;-73
2022/05/15 12:56:26;;;;;;;14.98;5.97;;;22.50;55.90;;;;;;6182730;23;20266;-75
2022/05/15 12:59:18;;;;;;;17.50;5.97;;;22.50;55.80;;;;;;6181795;23;20009;-71
2022/05/15 13:01:47;;;;;;;29.23;15.63;;;22.50;55.90;;;;;;6182836;23;20354;-74
2022/05/15 13:04:24;;;;;;;30.80;16.52;;;22.60;55.90;;;;;;6183089;23;20025;-77
2022/05/15 13:06:56;;;;;;;19.13;9.98;;;22.50;55.80;;;;;;6181441;23;20111;-74
2022/05/15 13:09:26;;;;;;;11.85;7.65;;;22.50;55.80;;;;;;6181550;23;20491;-71
2022/05/15 13:12:00;;;;;;;12.13;6.25;;;22.50;55.40;;;;;;6181312;23;20380;-74
2022/05/15 13:14:48;;;;;;;9.85;4.75;;;22.50;55.30;;;;;;6181843;23;19997;-72
2022/05/15 13:17:25;;;;;;;9.18;4.85;;;22.50;55.40;;;;;;6130383;23;20436;-73
2022/05/15 13:19:52;;;;;;;13.82;4.93;;;22.50;54.90;;;;;;6180184;23;20001;-73
2022/05/15 13:22:24;;;;;;;13.48;4.63;;;22.60;55.00;;;;;;6181763;23;20008;-73
2022/05/15 13:25:02;;;;;;;13.52;4.68;;;22.50;54.80;;;;;;6180830;23;20017;-73
2022/05/15 13:27:28;;;;;;;11.55;3.58;;;22.60;54.90;;;;;;6155586;23;20005;-73
2022/05/15 13:29:56;;;;;;;11.68;3.88;;;22.60;55.00;;;;;;6182020;23;20001;-73
2022/05/15 13:32:22;;;;;;;12.55;3.97;;;22.60;55.20;;;;;;6181211;23;20084;-74
2022/05/15 13:34:51;;;;;;;9.10;3.50;;;22.60;55.10;;;;;;6181826;23;20005;-72
2022/05/15 13:37:32;;;;;;;25.35;3.92;;;22.60;55.30;;;;;;6180498;23;20001;-73
2022/05/15 13:45:58;;;;;;;12.45;3.40;;;22.60;55.30;;;;;;6180572;23;20075;-74
2022/05/15 13:48:26;;;;;;;13.38;4.88;;;22.60;55.30;;;;;;6181922;23;20009;-73
2022/05/15 13:51:02;;;;;;;20.52;4.03;;;22.60;56.10;;;;;;6180552;23;20013;-74
2022/05/15 13:53:32;;;;;;;12.93;4.35;;;22.60;55.50;;;;;;6175747;23;20032;-73
2022/05/15 13:56:23;;;;;;;11.68;4.25;;;22.50;55.10;;;;;;6181622;23;19997;-74
2022/05/15 13:58:58;;;;;;;10.90;3.60;;;22.50;54.90;;;;;;6163184;23;20001;-74
2022/05/15 14:01:36;;;;;;;16.27;3.22;;;22.50;54.80;;;;;;6181317;23;20436;-75
2022/05/15 14:04:25;;;;;;;26.35;4.70;;;22.50;54.50;;;;;;6179657;23;20001;-76
2022/05/15 14:06:51;;;;;;;17.25;4.55;;;22.40;54.90;;;;;;6158261;23;20009;-75
2022/05/15 14:09:18;;;;;;;7.70;3.13;;;22.30;54.40;;;;;;6182044;23;20005;-76
2022/05/15 14:11:51;;;;;;;10.48;3.05;;;22.30;53.90;;;;;;6152953;23;20028;-76
2022/05/15 14:14:40;;;;;;;54.28;20.70;;;22.30;53.30;;;;;;6181273;23;20001;-75
2022/05/15 14:17:08;;;;;;;44.72;23.58;;;22.30;54.90;;;;;;6158838;23;20429;-77
2022/05/15 14:19:54;;;;;;;28.63;16.63;;;22.30;55.90;;;;;;6130943;23;20013;-76
2022/05/15 14:22:21;;;;;;;22.85;7.57;;;22.20;55.60;;;;;;6179787;23;20418;-75
2022/05/15 14:24:48;;;;;;;13.77;5.65;;;22.20;54.10;;;;;;6180368;23;20463;-76
2022/05/15 14:27:16;;;;;;;13.68;4.63;;;22.20;54.00;;;;;;6154841;23;20387;-72
2022/05/15 14:29:46;;;;;;;10.55;4.22;;;22.10;53.90;;;;;;6172458;23;20310;-75
2022/05/15 14:32:20;;;;;;;7.88;3.50;;;22.10;54.50;;;;;;6181206;23;20013;-76
2022/05/15 14:34:46;;;;;;;13.30;4.60;;;22.10;54.70;;;;;;6180346;23;20080;-81
2022/05/15 14:37:13;;;;;;;8.43;3.25;;;22.00;55.30;;;;;;6180710;23;20001;-76
2022/05/15 14:39:40;;;;;;;16.42;4.55;;;22.00;54.90;;;;;;6179636;23;20001;-76
2022/05/15 14:42:07;;;;;;;16.17;3.97;;;22.00;55.40;;;;;;6178191;23;20037;-76